Time;durP1;ratioP1;P1;durP2;ratioP2;P2;SDS_P1;SDS_P2;PMS_P1;PMS_P2;Temp;Humidity;BMP_temperature;BMP_pressure;BME280_temperature;BME280_humidity;BME280_pressure;Samples;Min_cycle;Max_cycle;Signal;HPM_P1;HPM_P2
2022/12/10 00:00:36;;;;;;;41.50;16.13;;;0.50;99.90;;;;;;5033129;28;20214;-69
2022/12/10 00:03:02;;;;;;;33.63;15.93;;;0.50;99.90;;;;;;5032119;28;20182;-69
2022/12/10 00:05:28;;;;;;;42.97;17.00;;;0.50;99.90;;;;;;5033074;28;20178;-69
2022/12/10 00:07:54;;;;;;;45.00;16.00;;;0.50;99.90;;;;;;5033016;28;20418;-69
2022/12/10 00:10:19;;;;;;;29.13;12.20;;;0.40;99.90;;;;;;5032896;28;20236;-68
2022/12/10 00:12:45;;;;;;;33.23;16.40;;;0.50;99.90;;;;;;5031919;28;20197;-69
2022/12/10 00:15:10;;;;;;;38.03;15.87;;;0.40;99.90;;;;;;5031216;28;20191;-68
2022/12/10 00:17:36;;;;;;;31.07;14.47;;;0.40;99.90;;;;;;5032850;28;20178;-69
2022/12/10 00:20:02;;;;;;;34.23;15.00;;;0.40;99.90;;;;;;5032369;28;20701;-69
2022/12/10 00:22:28;;;;;;;48.20;17.87;;;0.40;99.90;;;;;;5032838;28;20182;-69
2022/12/10 00:24:53;;;;;;;32.30;16.50;;;0.50;99.90;;;;;;5032710;28;20744;-69
2022/12/10 00:27:19;;;;;;;38.67;14.40;;;0.50;99.90;;;;;;5032559;28;20182;-69
2022/12/10 00:29:45;;;;;;;28.60;14.87;;;0.50;99.90;;;;;;5032435;28;20224;-69
2022/12/10 00:32:10;;;;;;;41.67;17.60;;;0.50;99.90;;;;;;5032330;28;20224;-69
2022/12/10 00:34:36;;;;;;;40.43;18.10;;;0.50;99.90;;;;;;5031821;28;20579;-69
2022/12/10 00:37:01;;;;;;;43.70;16.43;;;0.50;99.90;;;;;;5029304;28;20190;-69
2022/12/10 00:39:27;;;;;;;36.10;16.60;;;0.50;99.90;;;;;;5030702;28;20221;-70
2022/12/10 00:41:53;;;;;;;38.37;15.83;;;0.50;99.90;;;;;;5032026;28;20178;-69
2022/12/10 00:44:18;;;;;;;43.53;17.30;;;0.50;99.90;;;;;;5031092;28;20175;-69
2022/12/10 00:46:44;;;;;;;48.93;17.63;;;0.50;99.90;;;;;;5032494;28;20189;-69
2022/12/10 00:49:10;;;;;;;36.17;16.10;;;0.50;99.90;;;;;;5030950;28;20619;-69
2022/12/10 00:51:36;;;;;;;51.33;17.80;;;0.50;99.90;;;;;;5031941;28;20183;-69
2022/12/10 00:54:02;;;;;;;33.43;17.33;;;0.50;99.90;;;;;;5031741;28;20536;-68
2022/12/10 00:56:30;;;;;;;37.90;15.97;;;0.50;99.90;;;;;;5032184;28;20421;-68
2022/12/10 00:58:56;;;;;;;36.30;15.40;;;0.50;99.90;;;;;;5031568;28;20569;-69
2022/12/10 01:01:32;;;;;;;30.00;14.30;;;0.50;99.90;;;;;;5032165;28;20952;-68
2022/12/10 01:04:08;;;;;;;32.80;14.83;;;0.50;99.90;;;;;;5031797;28;20416;-69
2022/12/10 01:06:59;;;;;;;37.10;17.00;;;0.50;99.90;;;;;;5031910;28;20421;-69
2022/12/10 01:09:28;;;;;;;40.00;16.80;;;0.50;99.90;;;;;;5022381;28;20413;-69
2022/12/10 01:11:55;;;;;;;37.90;15.33;;;0.50;99.90;;;;;;5031543;28;20420;-68
2022/12/10 01:14:24;;;;;;;36.63;15.03;;;0.50;99.90;;;;;;5031927;28;20424;-68
2022/12/10 01:16:54;;;;;;;40.70;16.43;;;0.50;99.90;;;;;;5031452;28;20787;-68
2022/12/10 01:19:20;;;;;;;40.70;17.40;;;0.50;99.90;;;;;;5031183;28;20584;-68
2022/12/10 01:21:53;;;;;;;27.33;14.27;;;0.50;99.90;;;;;;5031027;28;20429;-68
2022/12/10 01:24:21;;;;;;;34.37;14.97;;;0.50;99.90;;;;;;5031612;28;20891;-70
2022/12/10 01:26:47;;;;;;;32.57;16.60;;;0.50;99.90;;;;;;5031324;28;20515;-68
2022/12/10 01:29:13;;;;;;;36.37;15.10;;;0.50;99.90;;;;;;5033581;28;20437;-68
2022/12/10 01:31:39;;;;;;;38.83;16.30;;;0.50;99.90;;;;;;5030839;28;20520;-68
2022/12/10 01:34:09;;;;;;;38.03;16.60;;;0.50;99.90;;;;;;5030868;28;20183;-70
2022/12/10 01:36:37;;;;;;;30.03;14.53;;;0.50;99.90;;;;;;5031058;28;20417;-70
2022/12/10 01:39:05;;;;;;;47.60;18.03;;;0.50;99.90;;;;;;5031105;28;20463;-70
2022/12/10 01:41:38;;;;;;;41.50;18.80;;;0.50;99.90;;;;;;5030958;28;20504;-70
2022/12/10 01:44:09;;;;;;;37.07;16.40;;;0.50;99.90;;;;;;5030194;28;20410;-70
2022/12/10 01:46:40;;;;;;;36.93;15.80;;;0.50;99.90;;;;;;5031321;28;20420;-70
2022/12/10 01:49:09;;;;;;;46.13;17.87;;;0.50;99.90;;;;;;5030649;28;20776;-70
2022/12/10 01:51:38;;;;;;;39.13;17.20;;;0.50;99.90;;;;;;5030850;28;20975;-70
2022/12/10 01:54:07;;;;;;;39.43;15.20;;;0.50;99.90;;;;;;5030878;28;20428;-70
2022/12/10 01:56:38;;;;;;;37.97;15.70;;;0.50;99.90;;;;;;5031377;28;20417;-70
2022/12/10 01:59:05;;;;;;;34.60;15.70;;;0.50;99.90;;;;;;5030548;28;20479;-70
2022/12/10 02:01:46;;;;;;;36.40;16.20;;;0.50;99.90;;;;;;5030481;28;20425;-70
2022/12/10 02:04:34;;;;;;;29.50;15.97;;;0.50;99.90;;;;;;5030243;28;20767;-70
2022/12/10 02:07:09;;;;;;;33.07;16.27;;;0.50;99.90;;;;;;5030893;28;20447;-70
2022/12/10 02:09:56;;;;;;;34.27;16.40;;;0.60;99.90;;;;;;5030729;28;20435;-70
2022/12/10 02:12:30;;;;;;;36.40;15.47;;;0.60;99.90;;;;;;5020558;28;20421;-70
2022/12/10 02:15:12;;;;;;;29.07;15.57;;;0.50;99.90;;;;;;5030116;28;20428;-70
2022/12/10 02:17:50;;;;;;;28.87;15.07;;;0.50;99.90;;;;;;5030921;28;20424;-70
2022/12/10 02:20:24;;;;;;;44.43;15.57;;;0.50;99.90;;;;;;5030470;28;20460;-70
2022/12/10 02:22:53;;;;;;;36.33;15.30;;;0.50;99.90;;;;;;5030165;28;20427;-70
2022/12/10 02:25:25;;;;;;;35.40;17.83;;;0.50;99.90;;;;;;5030468;28;20431;-70
2022/12/10 02:27:55;;;;;;;36.37;15.40;;;0.60;99.90;;;;;;5030213;28;20418;-70
2022/12/10 02:30:21;;;;;;;35.53;17.37;;;0.50;99.90;;;;;;5030470;28;20413;-70
2022/12/10 02:32:49;;;;;;;26.03;14.30;;;0.60;99.90;;;;;;5030076;28;20753;-70
2022/12/10 02:35:26;;;;;;;38.33;15.90;;;0.60;99.90;;;;;;5030205;28;20647;-70
2022/12/10 02:38:26;;;;;;;46.50;18.50;;;0.60;99.90;;;;;;5029063;28;20463;-70
2022/12/10 02:40:58;;;;;;;42.90;14.97;;;0.60;99.90;;;;;;4984628;28;20896;-70
2022/12/10 02:43:27;;;;;;;33.63;15.20;;;0.50;99.90;;;;;;5032634;28;20503;-67
2022/12/10 02:45:54;;;;;;;32.17;15.20;;;0.60;99.90;;;;;;5034314;28;21073;-67
2022/12/10 02:48:20;;;;;;;31.77;16.10;;;0.50;99.90;;;;;;5033656;28;20472;-67
2022/12/10 02:50:46;;;;;;;34.70;14.47;;;0.50;99.90;;;;;;5033902;28;20925;-67
2022/12/10 02:53:11;;;;;;;37.23;17.70;;;0.50;99.90;;;;;;5034049;28;20221;-68
2022/12/10 02:55:50;;;;;;;34.57;15.43;;;0.50;99.90;;;;;;5034328;28;20295;-67
2022/12/10 02:58:27;;;;;;;28.97;13.67;;;0.60;99.90;;;;;;5033872;28;20197;-67
2022/12/10 03:01:06;;;;;;;39.33;16.00;;;0.50;99.90;;;;;;5033554;28;20551;-67
2022/12/10 03:03:42;;;;;;;35.13;14.63;;;0.50;99.90;;;;;;5033407;28;20496;-67
2022/12/10 03:06:35;;;;;;;35.30;14.77;;;0.50;99.90;;;;;;5034535;28;20420;-68
2022/12/10 03:09:06;;;;;;;36.83;15.27;;;0.50;99.90;;;;;;5033878;28;20516;-67
2022/12/10 03:11:33;;;;;;;32.17;15.97;;;0.50;99.90;;;;;;5033441;28;20416;-67
2022/12/10 03:14:12;;;;;;;24.10;12.97;;;0.50;99.90;;;;;;5033502;28;20479;-67
2022/12/10 03:16:43;;;;;;;41.63;15.33;;;0.50;99.90;;;;;;5033610;28;20417;-67
2022/12/10 03:19:17;;;;;;;28.80;13.87;;;0.50;99.90;;;;;;5033300;28;20468;-67
2022/12/10 03:21:46;;;;;;;32.43;15.60;;;0.50;99.90;;;;;;5033018;28;20423;-67
2022/12/10 03:24:12;;;;;;;40.73;13.93;;;0.50;99.90;;;;;;5031047;28;20464;-67
2022/12/10 03:26:39;;;;;;;38.70;15.73;;;0.40;99.90;;;;;;5031769;28;20500;-67
2022/12/10 03:29:09;;;;;;;29.50;15.10;;;0.50;99.90;;;;;;5033676;28;20480;-67
2022/12/10 03:31:35;;;;;;;38.47;16.83;;;0.50;99.90;;;;;;5032919;28;20460;-67
2022/12/10 03:34:02;;;;;;;35.20;16.10;;;0.40;99.90;;;;;;5033091;28;20512;-67
2022/12/10 03:36:29;;;;;;;31.37;14.37;;;0.40;99.90;;;;;;5033285;28;20837;-67
2022/12/10 03:38:56;;;;;;;32.93;16.33;;;0.40;99.90;;;;;;5032953;28;20951;-67
2022/12/10 03:41:22;;;;;;;34.17;17.87;;;0.40;99.90;;;;;;5033256;28;20822;-67
2022/12/10 03:43:51;;;;;;;47.03;16.13;;;0.40;99.90;;;;;;5031459;28;20449;-67
2022/12/10 03:46:17;;;;;;;7.93;1.80;;;0.40;99.90;;;;;;5032851;28;20545;-67
2022/12/10 03:48:42;;;;;;;38.63;13.03;;;0.40;99.90;;;;;;5032497;28;20418;-67
2022/12/10 03:51:08;;;;;;;44.37;15.97;;;0.40;99.90;;;;;;5033030;28;20183;-67
2022/12/10 03:53:33;;;;;;;3.73;2.40;;;0.40;99.90;;;;;;5032577;28;20216;-67
2022/12/10 03:55:59;;;;;;;34.50;17.60;;;0.40;99.90;;;;;;5032729;28;20183;-67
2022/12/10 03:58:24;;;;;;;35.83;15.03;;;0.40;99.90;;;;;;5032489;28;20205;-67
2022/12/10 04:00:50;;;;;;;2.30;1.70;;;0.40;99.90;;;;;;5032835;28;20730;-67
2022/12/10 04:03:16;;;;;;;35.43;15.20;;;0.40;99.90;;;;;;5032032;28;20179;-67
2022/12/10 04:05:41;;;;;;;32.47;14.10;;;0.40;99.90;;;;;;5032911;28;20190;-67
2022/12/10 04:08:07;;;;;;;29.90;14.33;;;0.40;99.90;;;;;;5032724;28;20182;-67
2022/12/10 04:10:38;;;;;;;33.43;16.37;;;0.40;99.90;;;;;;5032428;28;20198;-67
2022/12/10 04:18:33;;;;;;;34.23;15.43;;;0.40;99.90;;;;;;5032516;28;20508;-70
2022/12/10 04:29:11;;;;;;;53.23;16.30;;;0.30;99.90;;;;;;5032227;28;20420;-70
2022/12/10 04:31:37;;;;;;;30.90;15.30;;;0.30;99.90;;;;;;5031765;28;20433;-67
2022/12/10 04:34:02;;;;;;;29.77;15.00;;;0.30;99.90;;;;;;5032256;28;20182;-67
2022/12/10 04:36:28;;;;;;;44.23;17.33;;;0.30;99.90;;;;;;5032226;28;20681;-67
2022/12/10 04:38:53;;;;;;;34.87;15.87;;;0.30;99.90;;;;;;5028895;28;20256;-67
2022/12/10 04:41:19;;;;;;;30.30;14.30;;;0.30;99.90;;;;;;5031950;28;20182;-67
2022/12/10 04:43:44;;;;;;;39.03;16.37;;;0.30;99.90;;;;;;5029719;28;20195;-69
2022/12/10 04:46:10;;;;;;;31.60;13.83;;;0.40;99.90;;;;;;5032195;28;20185;-70
2022/12/10 04:48:36;;;;;;;30.93;14.43;;;0.40;99.90;;;;;;5031244;28;20182;-70
2022/12/10 04:51:02;;;;;;;34.17;15.27;;;0.40;99.90;;;;;;5031453;28;20424;-70
2022/12/10 04:53:27;;;;;;;29.90;15.57;;;0.40;99.90;;;;;;5031334;28;20562;-70
2022/12/10 04:55:53;;;;;;;1.57;0.87;;;0.40;99.90;;;;;;5031720;28;20197;-70
2022/12/10 04:58:19;;;;;;;2.60;2.30;;;0.40;99.90;;;;;;5031482;28;20202;-70
2022/12/10 05:00:44;;;;;;;28.23;13.40;;;0.40;99.90;;;;;;5031008;28;20564;-70
2022/12/10 05:03:10;;;;;;;34.20;14.73;;;0.40;99.90;;;;;;5030965;28;20265;-70
2022/12/10 05:05:36;;;;;;;26.47;14.27;;;0.40;99.90;;;;;;5031951;28;20186;-70
2022/12/10 05:08:02;;;;;;;1.40;0.87;;;0.40;99.90;;;;;;5031693;28;20268;-70
2022/12/10 05:10:27;;;;;;;33.27;14.27;;;0.40;99.90;;;;;;5031389;28;20655;-70
2022/12/10 05:12:53;;;;;;;30.43;13.07;;;0.40;99.90;;;;;;5030975;28;20536;-70
2022/12/10 05:15:19;;;;;;;44.93;16.93;;;0.30;99.90;;;;;;5030896;28;20290;-70
2022/12/10 05:17:44;;;;;;;26.97;14.43;;;0.30;99.90;;;;;;5031579;28;20561;-70
2022/12/10 05:20:10;;;;;;;39.27;15.53;;;0.30;99.90;;;;;;5031413;28;20237;-70
2022/12/10 05:25:20;;;;;;;31.20;13.30;;;0.30;99.90;;;;;;5031340;28;20835;-70
2022/12/10 05:27:46;;;;;;;30.90;15.23;;;0.30;99.90;;;;;;5026499;28;20452;-70
2022/12/10 05:30:12;;;;;;;36.03;14.97;;;0.30;99.90;;;;;;5031702;28;20182;-70
2022/12/10 05:32:38;;;;;;;32.50;15.10;;;0.30;99.90;;;;;;5031203;28;20174;-70
2022/12/10 05:35:04;;;;;;;35.90;15.07;;;0.20;99.90;;;;;;5033479;28;20913;-70
2022/12/10 05:37:30;;;;;;;29.03;16.47;;;0.20;99.90;;;;;;5031449;28;20182;-70
2022/12/10 05:39:56;;;;;;;32.20;14.77;;;0.20;99.90;;;;;;5050660;28;20483;-70
2022/12/10 05:42:21;;;;;;;35.33;14.83;;;0.20;99.90;;;;;;5028500;28;20174;-70
2022/12/10 05:44:48;;;;;;;36.43;15.80;;;0.20;99.90;;;;;;5027561;28;20289;-69
2022/12/10 05:47:13;;;;;;;29.20;14.20;;;0.20;99.90;;;;;;5031143;28;20517;-70
2022/12/10 05:49:39;;;;;;;37.07;16.90;;;0.30;99.90;;;;;;5030808;28;20512;-70
2022/12/10 05:52:05;;;;;;;31.23;14.77;;;0.20;99.90;;;;;;5030814;28;20261;-70
2022/12/10 05:54:30;;;;;;;40.43;16.03;;;0.20;99.90;;;;;;5031060;28;20273;-70
2022/12/10 05:56:56;;;;;;;24.97;13.80;;;0.20;99.90;;;;;;5030829;28;20190;-70
2022/12/10 05:59:22;;;;;;;37.50;13.90;;;0.20;99.90;;;;;;5030094;28;20217;-70
2022/12/10 06:01:47;;;;;;;27.77;14.57;;;0.20;99.90;;;;;;5030302;28;20185;-70
2022/12/10 06:04:13;;;;;;;31.33;15.10;;;0.20;99.90;;;;;;5030319;28;20214;-70
2022/12/10 06:06:39;;;;;;;38.20;16.43;;;0.20;99.90;;;;;;5030819;28;20204;-67
2022/12/10 06:09:09;;;;;;;30.53;15.50;;;0.20;99.90;;;;;;5017470;28;20186;-67
2022/12/10 06:11:35;;;;;;;4.23;2.73;;;0.20;99.90;;;;;;5030010;28;20616;-67
2022/12/10 06:14:01;;;;;;;1.73;0.77;;;0.20;99.90;;;;;;5030243;28;20931;-67
2022/12/10 06:16:28;;;;;;;28.10;13.53;;;0.20;99.90;;;;;;5030541;28;20509;-67
2022/12/10 06:18:54;;;;;;;2.37;1.40;;;0.20;99.90;;;;;;5030196;28;20452;-67
2022/12/10 06:21:20;;;;;;;1.30;0.80;;;0.20;99.90;;;;;;5030466;28;20437;-67
2022/12/10 06:23:47;;;;;;;2.70;1.33;;;0.30;99.90;;;;;;5030137;28;20448;-67
2022/12/10 06:26:16;;;;;;;22.20;12.03;;;0.20;99.90;;;;;;5030298;28;20787;-68
2022/12/10 06:28:44;;;;;;;31.27;13.23;;;0.20;99.90;;;;;;5029905;28;20733;-68
2022/12/10 06:31:10;;;;;;;1.67;0.90;;;0.20;99.90;;;;;;5030449;28;20781;-68
2022/12/10 06:33:36;;;;;;;6.10;1.70;;;0.20;99.90;;;;;;5029803;28;20424;-68
2022/12/10 06:36:06;;;;;;;1.30;0.63;;;0.20;99.90;;;;;;5027131;28;20194;-68
2022/12/10 06:38:33;;;;;;;3.37;1.43;;;0.20;99.90;;;;;;5030256;28;20186;-68
2022/12/10 06:40:59;;;;;;;1.83;0.80;;;0.20;99.90;;;;;;5023882;28;20945;-67
2022/12/10 06:43:28;;;;;;;3.67;1.93;;;0.20;99.90;;;;;;5028430;28;20464;-68
2022/12/10 06:45:54;;;;;;;26.63;12.67;;;0.20;99.90;;;;;;5030316;28;20982;-68
2022/12/10 06:48:19;;;;;;;28.83;14.20;;;0.10;99.90;;;;;;5029713;28;20425;-68
2022/12/10 06:50:45;;;;;;;29.57;13.10;;;0.10;99.90;;;;;;5012468;28;20687;-67
2022/12/10 06:53:11;;;;;;;1.93;1.17;;;0.10;99.90;;;;;;5029877;28;20187;-67
2022/12/10 06:55:38;;;;;;;1.13;0.60;;;0.20;99.90;;;;;;5030203;28;20726;-69
2022/12/10 06:58:04;;;;;;;3.67;1.27;;;0.10;99.90;;;;;;5030195;28;20642;-69
2022/12/10 07:00:30;;;;;;;3.43;2.00;;;0.20;99.90;;;;;;5030159;28;20501;-69
2022/12/10 07:02:55;;;;;;;28.33;12.83;;;0.10;99.90;;;;;;5030274;28;20476;-69
2022/12/10 07:05:21;;;;;;;36.83;12.60;;;0.10;99.90;;;;;;5030641;28;20217;-67
2022/12/10 07:07:46;;;;;;;27.83;13.70;;;0.10;99.90;;;;;;5030578;28;20485;-67
2022/12/10 07:10:12;;;;;;;25.53;12.57;;;0.10;99.90;;;;;;5029782;28;20205;-67
2022/12/10 07:12:37;;;;;;;31.53;15.10;;;0.00;99.90;;;;;;5029489;28;20190;-67
2022/12/10 07:15:04;;;;;;;31.13;13.97;;;0.10;99.90;;;;;;5029228;28;20228;-67
2022/12/10 07:17:29;;;;;;;36.13;14.30;;;0.00;99.90;;;;;;5029775;28;20528;-67
2022/12/10 07:19:55;;;;;;;22.40;12.13;;;0.00;99.90;;;;;;5029276;28;20452;-68
2022/12/10 07:22:20;;;;;;;28.40;13.80;;;0.00;99.90;;;;;;5030222;28;20190;-68
2022/12/10 07:24:48;;;;;;;33.23;13.13;;;0.00;99.90;;;;;;5029330;28;20183;-68
2022/12/10 07:27:13;;;;;;;33.33;14.97;;;0.00;99.90;;;;;;5033818;28;20262;-68
2022/12/10 07:29:39;;;;;;;32.60;14.97;;;0.00;99.90;;;;;;5033198;28;20412;-68
2022/12/10 07:32:04;;;;;;;28.67;14.30;;;0.00;99.90;;;;;;5033345;28;20273;-68
2022/12/10 07:34:30;;;;;;;25.73;13.20;;;0.00;99.90;;;;;;5032828;28;20590;-68
2022/12/10 07:36:56;;;;;;;34.57;14.90;;;0.00;99.90;;;;;;5033555;28;20217;-68
2022/12/10 07:39:21;;;;;;;24.90;12.50;;;0.00;99.90;;;;;;5032971;28;20289;-68
2022/12/10 07:41:52;;;;;;;37.50;13.40;;;0.00;99.90;;;;;;5032563;28;20225;-68
2022/12/10 07:44:20;;;;;;;34.90;15.80;;;0.00;99.90;;;;;;5032919;28;20700;-68
2022/12/10 07:46:47;;;;;;;37.97;14.30;;;0.00;99.90;;;;;;5033359;28;20420;-68
2022/12/10 07:49:13;;;;;;;30.57;14.60;;;0.00;99.90;;;;;;5033489;28;20424;-68
2022/12/10 07:51:39;;;;;;;32.73;13.97;;;0.00;99.90;;;;;;5034134;28;20533;-68
2022/12/10 07:54:05;;;;;;;38.63;14.77;;;0.00;99.90;;;;;;5032963;28;20228;-68
2022/12/10 07:56:30;;;;;;;34.83;13.30;;;0.00;99.90;;;;;;5032977;28;20189;-68
2022/12/10 07:58:56;;;;;;;27.93;14.20;;;0.00;99.90;;;;;;5032516;28;20195;-68
2022/12/10 08:01:24;;;;;;;28.17;13.50;;;0.00;99.90;;;;;;5032888;28;20305;-68
2022/12/10 08:03:52;;;;;;;33.60;13.70;;;0.00;99.90;;;;;;5032174;28;20174;-68
2022/12/10 08:06:19;;;;;;;30.00;14.70;;;0.00;99.90;;;;;;5032587;28;20562;-68
2022/12/10 08:08:46;;;;;;;28.30;15.00;;;0.00;99.90;;;;;;5032952;28;20475;-68
2022/12/10 08:11:13;;;;;;;26.97;14.37;;;0.00;99.90;;;;;;5032648;28;20421;-68
2022/12/10 08:13:39;;;;;;;26.50;12.00;;;0.10;99.90;;;;;;5032039;28;20420;-68
2022/12/10 08:16:17;;;;;;;29.10;14.00;;;0.10;99.90;;;;;;5032637;28;20425;-68
2022/12/10 08:18:43;;;;;;;34.43;14.73;;;0.10;99.90;;;;;;5032163;28;20417;-69
2022/12/10 08:21:14;;;;;;;31.07;14.83;;;0.10;99.90;;;;;;5032031;28;20857;-69
2022/12/10 08:23:40;;;;;;;31.80;14.20;;;0.10;99.90;;;;;;5031816;28;20420;-69
2022/12/10 08:26:09;;;;;;;29.43;13.67;;;0.10;99.90;;;;;;5032645;28;20436;-69
2022/12/10 08:28:36;;;;;;;30.73;15.50;;;0.10;99.90;;;;;;5019712;28;20921;-68
2022/12/10 08:31:02;;;;;;;25.20;13.60;;;0.20;99.90;;;;;;5032321;28;20425;-68
2022/12/10 08:33:28;;;;;;;26.53;15.73;;;0.20;99.90;;;;;;5031619;28;20573;-69
2022/12/10 08:35:59;;;;;;;34.43;14.13;;;0.20;99.90;;;;;;5030188;28;20992;-68
2022/12/10 08:38:25;;;;;;;30.30;12.17;;;0.20;99.90;;;;;;5032401;28;20273;-68
2022/12/10 08:40:51;;;;;;;32.17;14.63;;;0.30;99.90;;;;;;5028825;28;20567;-69
2022/12/10 08:43:16;;;;;;;23.87;12.67;;;0.20;99.90;;;;;;5031898;28;20206;-69
2022/12/10 08:45:42;;;;;;;28.10;13.53;;;0.20;99.90;;;;;;5031686;28;20174;-68
2022/12/10 08:48:07;;;;;;;33.17;14.27;;;0.20;99.90;;;;;;5027888;28;20282;-68
2022/12/10 08:50:33;;;;;;;29.77;13.50;;;0.30;99.90;;;;;;5027794;28;20178;-68
2022/12/10 08:52:59;;;;;;;31.80;13.10;;;0.30;99.90;;;;;;5028392;28;20301;-69
2022/12/10 08:55:25;;;;;;;25.00;13.90;;;0.40;99.90;;;;;;5026240;28;20606;-69
2022/12/10 08:57:51;;;;;;;29.40;11.97;;;0.40;99.90;;;;;;5031402;28;20452;-68
2022/12/10 09:00:18;;;;;;;36.87;14.73;;;0.40;99.90;;;;;;5027668;28;20717;-68
2022/12/10 09:02:44;;;;;;;30.87;12.67;;;0.50;99.90;;;;;;5029614;28;20511;-68
2022/12/10 09:05:10;;;;;;;30.37;13.50;;;0.50;99.90;;;;;;5010702;28;20926;-68
2022/12/10 09:07:35;;;;;;;32.10;12.60;;;0.50;99.90;;;;;;5031541;28;20413;-68
2022/12/10 09:10:01;;;;;;;30.00;12.43;;;0.50;99.90;;;;;;5031320;28;20206;-68
2022/12/10 09:12:27;;;;;;;31.60;13.90;;;0.50;99.90;;;;;;5030040;28;20200;-68
2022/12/10 09:14:52;;;;;;;28.50;13.23;;;0.50;99.90;;;;;;5031078;28;20205;-68
2022/12/10 09:17:18;;;;;;;26.87;13.40;;;0.50;99.90;;;;;;5024743;28;20218;-68
2022/12/10 09:19:43;;;;;;;26.20;12.60;;;0.50;99.90;;;;;;5030648;28;20620;-69
2022/12/10 09:22:09;;;;;;;31.00;13.70;;;0.50;99.90;;;;;;5030693;28;20221;-68
2022/12/10 09:24:34;;;;;;;27.77;12.10;;;0.50;99.90;;;;;;5031231;28;20218;-68
2022/12/10 09:27:02;;;;;;;28.70;13.13;;;0.50;99.90;;;;;;5030872;28;20648;-68
2022/12/10 09:29:28;;;;;;;28.10;11.33;;;0.50;99.90;;;;;;5030814;28;20232;-68
2022/12/10 09:31:54;;;;;;;24.13;13.07;;;0.50;99.90;;;;;;5030541;28;20472;-68
2022/12/10 09:34:21;;;;;;;33.10;13.07;;;0.50;99.90;;;;;;5030599;28;20474;-68
2022/12/10 09:36:47;;;;;;;21.07;11.27;;;0.40;99.90;;;;;;5031046;28;20752;-68
2022/12/10 09:39:13;;;;;;;18.63;10.40;;;0.40;99.90;;;;;;5030775;28;20425;-68
2022/12/10 09:41:41;;;;;;;23.83;12.33;;;0.40;99.90;;;;;;5030756;28;20599;-68
2022/12/10 09:44:32;;;;;;;27.80;14.57;;;0.50;99.90;;;;;;5031013;28;20735;-69
2022/12/10 09:47:01;;;;;;;37.40;14.07;;;0.50;99.90;;;;;;5031036;28;20421;-68
2022/12/10 09:50:03;;;;;;;32.07;16.30;;;0.50;99.90;;;;;;5025526;28;20441;-68
2022/12/10 09:52:39;;;;;;;34.07;15.63;;;0.40;99.90;;;;;;4996357;28;20431;-68
2022/12/10 09:55:13;;;;;;;26.43;13.07;;;0.40;99.90;;;;;;5027670;28;20491;-68
2022/12/10 09:57:42;;;;;;;27.00;12.67;;;0.40;99.90;;;;;;5022008;28;20456;-68
2022/12/10 10:00:23;;;;;;;36.23;14.80;;;0.40;99.90;;;;;;5025735;28;20499;-68
2022/12/10 10:02:50;;;;;;;26.73;13.70;;;0.40;99.90;;;;;;5027603;28;20603;-68
2022/12/10 10:05:31;;;;;;;41.37;13.23;;;0.50;99.90;;;;;;5029258;28;20909;-69
2022/12/10 10:08:04;;;;;;;23.70;12.80;;;0.50;99.90;;;;;;5027172;28;21323;-68
2022/12/10 10:10:38;;;;;;;24.03;12.77;;;0.50;99.90;;;;;;5028706;28;20494;-68
2022/12/10 10:13:25;;;;;;;38.47;13.47;;;0.60;99.90;;;;;;5028772;28;20432;-67
2022/12/10 10:15:51;;;;;;;26.87;13.40;;;0.60;99.90;;;;;;5026752;28;20428;-67
2022/12/10 10:18:29;;;;;;;21.63;11.10;;;0.60;99.90;;;;;;5045443;23;20587;-68
2022/12/10 10:20:55;;;;;;;29.00;12.10;;;0.70;99.90;;;;;;5042150;28;21045;-69
2022/12/10 10:23:21;;;;;;;25.83;12.37;;;0.70;99.90;;;;;;5023866;28;20450;-67
2022/12/10 10:25:47;;;;;;;27.13;12.83;;;0.70;99.90;;;;;;5030087;28;20516;-68
2022/12/10 10:28:18;;;;;;;26.23;12.77;;;0.70;99.90;;;;;;5030258;28;20257;-67
2022/12/10 10:30:44;;;;;;;25.13;11.03;;;0.70;99.90;;;;;;5030026;28;20421;-65
2022/12/10 10:33:12;;;;;;;18.50;10.73;;;0.70;99.90;;;;;;5009844;28;20425;-66
2022/12/10 10:35:46;;;;;;;30.47;12.30;;;0.70;99.90;;;;;;5029956;28;20436;-63
2022/12/10 10:38:25;;;;;;;29.73;14.13;;;0.70;99.90;;;;;;5030279;28;20897;-65
2022/12/10 10:41:02;;;;;;;2.60;1.80;;;0.80;99.90;;;;;;5030314;28;20441;-68
2022/12/10 10:43:41;;;;;;;28.20;14.00;;;0.80;99.90;;;;;;5028809;28;20535;-66
2022/12/10 10:46:17;;;;;;;30.43;13.03;;;0.80;99.90;;;;;;5030040;28;20806;-68
2022/12/10 10:48:43;;;;;;;2.37;1.23;;;0.80;99.90;;;;;;5029642;28;20405;-67
2022/12/10 10:51:12;;;;;;;2.20;1.17;;;0.80;99.90;;;;;;5029979;28;20421;-68
2022/12/10 10:53:47;;;;;;;25.53;12.23;;;0.80;99.90;;;;;;5030057;28;20425;-68
2022/12/10 10:56:21;;;;;;;26.77;14.40;;;0.80;99.90;;;;;;5030265;28;20424;-69
2022/12/10 10:59:17;;;;;;;22.20;12.17;;;0.80;99.90;;;;;;5031799;28;20425;-67
2022/12/10 11:01:50;;;;;;;27.90;12.10;;;0.70;99.90;;;;;;5020836;28;20417;-67
2022/12/10 11:04:37;;;;;;;31.10;11.70;;;0.70;99.90;;;;;;5033448;28;20520;-67
2022/12/10 11:07:19;;;;;;;25.10;12.80;;;0.70;99.90;;;;;;5033733;28;20429;-66
2022/12/10 11:09:45;;;;;;;33.50;13.50;;;0.80;99.90;;;;;;5033535;28;20413;-67
2022/12/10 11:12:34;;;;;;;21.93;12.47;;;0.80;99.90;;;;;;5032903;28;20482;-67
2022/12/10 11:15:00;;;;;;;26.30;12.80;;;0.70;99.90;;;;;;5031512;28;20190;-67
2022/12/10 11:17:27;;;;;;;28.83;11.80;;;0.70;99.90;;;;;;5033464;28;20433;-67
2022/12/10 11:20:00;;;;;;;21.57;11.07;;;0.70;99.90;;;;;;5043445;28;20256;-67
2022/12/10 11:22:31;;;;;;;31.67;13.00;;;0.80;99.90;;;;;;5034127;28;20803;-66
2022/12/10 11:24:58;;;;;;;24.83;12.13;;;0.80;99.90;;;;;;5045346;28;20434;-67
2022/12/10 11:28:00;;;;;;;23.87;11.60;;;0.90;99.90;;;;;;5034888;28;21211;-67
2022/12/10 11:30:30;;;;;;;28.20;12.63;;;0.90;99.90;;;;;;4997083;28;20452;-67
2022/12/10 11:33:04;;;;;;;30.73;12.87;;;0.90;99.90;;;;;;5037912;28;20421;-67
2022/12/10 11:35:29;;;;;;;23.97;11.07;;;0.90;99.90;;;;;;5029365;28;20957;-67
2022/12/10 11:38:26;;;;;;;22.20;11.70;;;0.90;99.90;;;;;;5028962;28;20432;-66
2022/12/10 11:41:00;;;;;;;1.10;0.57;;;0.80;99.90;;;;;;5025531;28;20237;-66
2022/12/10 11:43:35;;;;;;;22.70;12.07;;;0.90;99.90;;;;;;5026651;28;20428;-66
2022/12/10 11:46:13;;;;;;;19.60;10.53;;;0.90;99.90;;;;;;5025967;28;20413;-66
2022/12/10 11:48:59;;;;;;;25.33;11.20;;;0.90;99.90;;;;;;5031992;28;20840;-66
2022/12/10 11:52:02;;;;;;;45.03;11.57;;;0.90;99.90;;;;;;5009267;28;20484;-67
2022/12/10 11:54:36;;;;;;;26.40;10.30;;;0.90;99.90;;;;;;5012760;28;20447;-66
2022/12/10 11:57:29;;;;;;;33.57;13.40;;;0.90;99.90;;;;;;5013024;28;20421;-67
2022/12/10 12:00:33;;;;;;;20.20;10.53;;;0.90;99.90;;;;;;5006477;28;20477;-66
2022/12/10 12:03:25;;;;;;;19.13;10.00;;;0.90;99.90;;;;;;4975034;28;20421;-66
2022/12/10 12:06:09;;;;;;;21.00;9.00;;;0.90;99.90;;;;;;5010674;28;20457;-66
2022/12/10 12:08:37;;;;;;;31.33;12.00;;;0.90;99.90;;;;;;5011278;28;20407;-66
2022/12/10 12:11:39;;;;;;;25.77;10.87;;;0.90;99.90;;;;;;5013155;28;20425;-66
2022/12/10 12:14:08;;;;;;;21.53;10.63;;;0.90;99.90;;;;;;5012755;28;20425;-66
2022/12/10 12:16:51;;;;;;;20.03;9.67;;;0.90;99.90;;;;;;5012929;28;20422;-66
2022/12/10 12:19:25;;;;;;;22.57;10.80;;;0.90;99.90;;;;;;5019692;28;20444;-66
2022/12/10 12:21:51;;;;;;;26.47;12.33;;;0.90;99.90;;;;;;5015885;28;20428;-67
2022/12/10 12:24:35;;;;;;;22.50;10.17;;;0.90;99.90;;;;;;5023140;28;20414;-66
2022/12/10 12:27:16;;;;;;;18.97;9.70;;;0.90;99.90;;;;;;5016769;28;20221;-67
2022/12/10 12:29:50;;;;;;;25.23;10.20;;;1.00;99.90;;;;;;5012413;28;20886;-66
2022/12/10 12:32:31;;;;;;;34.97;10.17;;;1.10;99.90;;;;;;5012019;28;20422;-67
2022/12/10 12:35:09;;;;;;;20.70;9.50;;;1.10;99.90;;;;;;5011865;28;20549;-66
2022/12/10 12:37:48;;;;;;;20.57;10.93;;;1.10;99.90;;;;;;5012569;28;20418;-66
2022/12/10 12:40:28;;;;;;;18.90;10.03;;;1.00;99.90;;;;;;5012430;28;20454;-66
2022/12/10 12:43:03;;;;;;;22.70;10.80;;;1.00;99.90;;;;;;5011778;28;20429;-66
2022/12/10 12:45:38;;;;;;;35.23;11.83;;;1.00;99.90;;;;;;5012369;28;20402;-67
2022/12/10 12:48:28;;;;;;;16.30;9.17;;;1.00;99.90;;;;;;5011813;28;20497;-67
2022/12/10 12:51:01;;;;;;;22.70;10.23;;;1.00;99.90;;;;;;5007811;28;20902;-66
2022/12/10 12:53:27;;;;;;;19.00;10.63;;;0.90;99.90;;;;;;5006314;28;20525;-67
2022/12/10 12:55:59;;;;;;;20.43;9.47;;;0.90;99.90;;;;;;5010349;28;20513;-67
2022/12/10 12:58:39;;;;;;;21.93;10.10;;;0.90;99.90;;;;;;5004094;28;20179;-66
2022/12/10 13:01:26;;;;;;;22.33;11.50;;;0.90;99.90;;;;;;5010381;28;20536;-67
2022/12/10 13:03:51;;;;;;;23.57;11.07;;;0.90;99.90;;;;;;5011388;28;20906;-67
2022/12/10 13:06:24;;;;;;;26.70;12.90;;;0.90;99.90;;;;;;5011952;28;20415;-67
2022/12/10 13:08:58;;;;;;;42.70;12.27;;;0.90;99.90;;;;;;5003736;28;20222;-67